Terminal Aerodrome Forecast
Issued by NWS Jackson, MS

Home | Current Version | Previous Version | Text Only | Print | Product List | Glossary On
Versions: 1 2 3 4 5 6 7 8 9 10 11 12 13 14 15
000
FTUS44 KJAN 011120
TAFGWO
TAF
KGWO 011120Z 0112/0212 16005KT P6SM VCSH BKN015 OVC025
     FM011700 17007KT P6SM VCTS BKN040CB
     FM020000 16004KT P6SM BKN070
     FM020700 14004KT 6SM BR VCTS OVC025CB=

USA.gov is the U.S. government's official web portal to all federal, state and local government web resources and services.